Terminal Aerodrome Forecast
Issued by NWS

Current Version | Previous Version | Text Only | Print | Product List | Glossary On
Versions: 1 2 3 4 5 6 7 8 9 10 11 12 13
000
FTUS46 KPDT 190536
TAFYKM
TAF
KYKM 190536Z 1906/2006 28007KT P6SM BKN250
     FM192000 25008KT P6SM BKN100 BKN250
     FM200100 22012G22KT P6SM VCSH BKN070 BKN250=

USA.gov is the U.S. government's official web portal to all federal, state and local government web resources and services.